Time;durP1;ratioP1;P1;durP2;ratioP2;P2;SDS_P1;SDS_P2;PMS_P1;PMS_P2;Temp;Humidity;BMP_temperature;BMP_pressure;BME280_temperature;BME280_humidity;BME280_pressure;Samples;Min_cycle;Max_cycle;Signal;HPM_P1;HPM_P2
2023/09/21 00:00:23;;;;;;;1.50;1.30;;;;;;;;;;5073489;28;20772;-81
2023/09/21 00:02:50;;;;;;;1.60;1.20;;;;;;;;;;5073552;28;20398;-81
2023/09/21 00:05:21;;;;;;;1.70;1.40;;;;;;;;;;5074069;28;20475;-81
2023/09/21 00:07:47;;;;;;;1.55;1.30;;;;;;;;;;5072040;28;20411;-81
2023/09/21 00:10:13;;;;;;;1.40;1.30;;;;;;;;;;5065514;28;20733;-81
2023/09/21 00:12:40;;;;;;;1.50;1.23;;;;;;;;;;5072140;28;20387;-81
2023/09/21 00:15:06;;;;;;;2.40;1.33;;;;;;;;;;5073434;28;20386;-82
2023/09/21 00:17:37;;;;;;;1.30;1.20;;;;;;;;;;5073168;28;20390;-81
2023/09/21 00:20:10;;;;;;;1.90;1.60;;;;;;;;;;5073291;28;20384;-81
2023/09/21 00:22:37;;;;;;;1.88;1.50;;;;;;;;;;5060270;28;20389;-82
2023/09/21 00:25:04;;;;;;;1.95;1.42;;;;;;;;;;5072027;28;20423;-81
2023/09/21 00:27:30;;;;;;;2.40;1.60;;;;;;;;;;5073133;28;20498;-81
2023/09/21 00:29:56;;;;;;;1.23;1.13;;;;;;;;;;5075146;28;20468;-82
2023/09/21 00:32:22;;;;;;;1.88;1.30;;;;;;;;;;5076802;28;20394;-82
2023/09/21 00:34:51;;;;;;;2.03;1.40;;;;;;;;;;5076849;28;20779;-82
2023/09/21 00:37:17;;;;;;;2.13;1.42;;;;;;;;;;5076935;28;20383;-82
2023/09/21 00:39:43;;;;;;;1.27;1.17;;;;;;;;;;5076437;28;20422;-79
2023/09/21 00:42:09;;;;;;;1.30;1.20;;;;;;;;;;5076538;28;20387;-80
2023/09/21 00:44:35;;;;;;;1.50;1.40;;;;;;;;;;5079709;28;20761;-80
2023/09/21 00:47:02;;;;;;;1.63;1.45;;;;;;;;;;5074038;28;20411;-80
2023/09/21 00:49:29;;;;;;;1.90;1.40;;;;;;;;;;5076581;28;20417;-82
2023/09/21 00:51:56;;;;;;;1.48;1.38;;;;;;;;;;5076874;28;20376;-82
2023/09/21 00:54:22;;;;;;;1.80;1.30;;;;;;;;;;5075602;28;20868;-82
2023/09/21 00:56:48;;;;;;;1.52;1.10;;;;;;;;;;5076680;28;20725;-82
2023/09/21 00:59:15;;;;;;;1.80;1.38;;;;;;;;;;5076795;28;20387;-82
2023/09/21 01:01:42;;;;;;;1.30;1.20;;;;;;;;;;5077080;28;20424;-82
2023/09/21 01:04:12;;;;;;;2.10;1.20;;;;;;;;;;5076507;28;20392;-82
2023/09/21 01:06:39;;;;;;;1.50;1.30;;;;;;;;;;5076347;28;20814;-82
2023/09/21 01:09:08;;;;;;;1.90;1.30;;;;;;;;;;5067481;28;20399;-82
2023/09/21 01:11:38;;;;;;;1.38;1.20;;;;;;;;;;5076968;28;20423;-81
2023/09/21 01:14:05;;;;;;;1.90;1.40;;;;;;;;;;5076301;28;20391;-81
2023/09/21 01:16:31;;;;;;;2.90;1.30;;;;;;;;;;5076246;28;20384;-82
2023/09/21 01:18:57;;;;;;;1.85;1.45;;;;;;;;;;5068254;28;20418;-82
2023/09/21 01:21:49;;;;;;;2.47;1.30;;;;;;;;;;5077044;28;20376;-84
2023/09/21 01:24:15;;;;;;;1.70;1.25;;;;;;;;;;5065178;28;20376;-83
2023/09/21 01:26:41;;;;;;;2.58;1.30;;;;;;;;;;5076143;28;20407;-81
2023/09/21 01:29:08;;;;;;;1.65;1.20;;;;;;;;;;5075982;28;20465;-81
2023/09/21 01:31:34;;;;;;;1.60;1.30;;;;;;;;;;5075353;28;20938;-81
2023/09/21 01:34:03;;;;;;;1.95;1.30;;;;;;;;;;5075980;28;20392;-82
2023/09/21 01:36:29;;;;;;;1.60;1.42;;;;;;;;;;5065559;28;20483;-82
2023/09/21 01:38:55;;;;;;;2.00;1.50;;;;;;;;;;5074779;28;20379;-81
2023/09/21 01:41:22;;;;;;;1.70;1.40;;;;;;;;;;5067085;28;20380;-82
2023/09/21 01:43:48;;;;;;;2.70;1.50;;;;;;;;;;5082643;28;20388;-81
2023/09/21 01:46:18;;;;;;;1.30;1.20;;;;;;;;;;5075862;28;20408;-80
2023/09/21 01:48:45;;;;;;;1.65;1.48;;;;;;;;;;5075315;28;20388;-81
2023/09/21 01:51:12;;;;;;;1.67;1.23;;;;;;;;;;5075822;28;20378;-81
2023/09/21 01:53:38;;;;;;;1.95;1.40;;;;;;;;;;5075902;28;20729;-83
2023/09/21 01:56:04;;;;;;;1.67;1.13;;;;;;;;;;5071427;28;20490;-81
2023/09/21 01:58:30;;;;;;;1.42;1.20;;;;;;;;;;5075386;28;20383;-81
2023/09/21 02:00:56;;;;;;;1.52;1.33;;;;;;;;;;5075098;28;20702;-81
2023/09/21 02:03:30;;;;;;;1.50;1.40;;;;;;;;;;5074878;28;20690;-81
2023/09/21 02:05:57;;;;;;;1.35;1.13;;;;;;;;;;5075511;28;20854;-81
2023/09/21 02:08:23;;;;;;;2.60;1.30;;;;;;;;;;5075286;28;20839;-81
2023/09/21 02:10:52;;;;;;;1.35;1.25;;;;;;;;;;5075451;28;20376;-81
2023/09/21 02:13:19;;;;;;;1.40;1.30;;;;;;;;;;5075431;28;20379;-82
2023/09/21 02:15:45;;;;;;;1.70;1.30;;;;;;;;;;5075580;28;20465;-80
2023/09/21 02:18:11;;;;;;;1.50;1.40;;;;;;;;;;5075456;28;20865;-81
2023/09/21 02:20:42;;;;;;;1.40;1.30;;;;;;;;;;5075518;28;20857;-80
2023/09/21 02:23:08;;;;;;;1.30;1.20;;;;;;;;;;5075334;28;20845;-81
2023/09/21 02:25:35;;;;;;;1.35;1.25;;;;;;;;;;5074493;28;20383;-81
2023/09/21 02:28:09;;;;;;;1.63;1.10;;;;;;;;;;5075151;28;20414;-82
2023/09/21 02:30:36;;;;;;;1.25;1.15;;;;;;;;;;5075018;28;20388;-80
2023/09/21 02:33:12;;;;;;;1.50;1.20;;;;;;;;;;5075336;28;20391;-81
2023/09/21 02:35:41;;;;;;;1.80;1.30;;;;;;;;;;5073709;28;20390;-80
2023/09/21 02:38:11;;;;;;;1.48;1.33;;;;;;;;;;5074689;28;20904;-81
2023/09/21 02:40:39;;;;;;;1.30;1.20;;;;;;;;;;5074307;28;20411;-80
2023/09/21 02:43:07;;;;;;;1.83;1.30;;;;;;;;;;5074419;28;20399;-80
2023/09/21 02:45:35;;;;;;;1.40;1.30;;;;;;;;;;5076820;28;20852;-81
2023/09/21 02:48:02;;;;;;;1.85;1.67;;;;;;;;;;5071479;28;20414;-81
2023/09/21 02:50:28;;;;;;;1.50;1.38;;;;;;;;;;5074083;28;20748;-81
2023/09/21 02:52:54;;;;;;;1.30;1.20;;;;;;;;;;5074654;28;20375;-82
2023/09/21 02:55:21;;;;;;;1.67;1.30;;;;;;;;;;5074055;28;20753;-82
2023/09/21 02:57:49;;;;;;;1.47;1.37;;;;;;;;;;5074047;28;20372;-82
2023/09/21 03:00:22;;;;;;;1.80;1.42;;;;;;;;;;5074427;28;20474;-82
2023/09/21 03:02:49;;;;;;;2.30;1.20;;;;;;;;;;5074471;28;20375;-81
2023/09/21 03:05:18;;;;;;;1.55;1.30;;;;;;;;;;5074969;28;20432;-83
2023/09/21 03:07:48;;;;;;;1.40;1.30;;;;;;;;;;5074832;28;20422;-82
2023/09/21 03:10:16;;;;;;;2.40;1.35;;;;;;;;;;5075056;28;20865;-82
2023/09/21 03:12:42;;;;;;;1.47;1.30;;;;;;;;;;5074592;28;20726;-82
2023/09/21 03:15:16;;;;;;;1.92;1.30;;;;;;;;;;5074224;28;20387;-82
2023/09/21 03:17:42;;;;;;;1.50;1.20;;;;;;;;;;5075034;28;20368;-82
2023/09/21 03:20:12;;;;;;;1.70;1.30;;;;;;;;;;5074489;28;20856;-82
2023/09/21 03:22:38;;;;;;;1.65;1.30;;;;;;;;;;5074391;28;20771;-82
2023/09/21 03:25:11;;;;;;;2.17;1.40;;;;;;;;;;5086508;28;20386;-81
2023/09/21 03:27:38;;;;;;;1.50;1.40;;;;;;;;;;5072985;28;20741;-80
2023/09/21 03:30:05;;;;;;;1.35;1.17;;;;;;;;;;5074362;28;20395;-81
2023/09/21 03:32:31;;;;;;;1.70;1.60;;;;;;;;;;5074154;28;20379;-80
2023/09/21 03:34:57;;;;;;;1.97;1.43;;;;;;;;;;5064311;28;20517;-82
2023/09/21 03:37:24;;;;;;;1.50;1.40;;;;;;;;;;5067503;28;20381;-82
2023/09/21 03:39:50;;;;;;;1.33;1.23;;;;;;;;;;5042317;28;20481;-82
2023/09/21 03:42:17;;;;;;;2.10;1.25;;;;;;;;;;5067360;28;20423;-81
2023/09/21 03:44:43;;;;;;;1.30;1.20;;;;;;;;;;5069814;28;20367;-82
2023/09/21 03:47:11;;;;;;;2.28;1.27;;;;;;;;;;5073260;28;20903;-81
2023/09/21 03:49:37;;;;;;;1.95;1.20;;;;;;;;;;5074851;28;20861;-82
2023/09/21 03:52:04;;;;;;;1.48;1.38;;;;;;;;;;5074020;28;20426;-82
2023/09/21 03:54:30;;;;;;;1.40;1.30;;;;;;;;;;5070705;28;20472;-81
2023/09/21 03:56:56;;;;;;;1.40;1.20;;;;;;;;;;5073895;28;20387;-81
2023/09/21 03:59:22;;;;;;;2.70;1.48;;;;;;;;;;5074985;28;20722;-83
2023/09/21 04:01:48;;;;;;;1.52;1.20;;;;;;;;;;5075216;28;20376;-81
2023/09/21 04:04:17;;;;;;;1.40;1.30;;;;;;;;;;5075809;28;20384;-81
2023/09/21 04:06:43;;;;;;;2.35;1.50;;;;;;;;;;5080585;28;20937;-81
2023/09/21 04:09:10;;;;;;;1.50;1.40;;;;;;;;;;5080578;28;20483;-81
2023/09/21 04:11:36;;;;;;;1.48;1.30;;;;;;;;;;5080352;28;20865;-81
2023/09/21 04:14:03;;;;;;;1.60;1.20;;;;;;;;;;5080105;28;20455;-82
2023/09/21 04:16:29;;;;;;;1.70;1.30;;;;;;;;;;5080110;28;20371;-81
2023/09/21 04:18:55;;;;;;;1.90;1.47;;;;;;;;;;5080106;28;20398;-81
2023/09/21 04:21:23;;;;;;;2.30;1.60;;;;;;;;;;5080772;28;20383;-80
2023/09/21 04:23:49;;;;;;;2.40;1.40;;;;;;;;;;5079979;28;20383;-81
2023/09/21 04:26:15;;;;;;;1.40;1.30;;;;;;;;;;5080315;28;20384;-81
2023/09/21 04:28:41;;;;;;;1.50;1.30;;;;;;;;;;5081345;28;20391;-82
2023/09/21 04:31:09;;;;;;;1.60;1.30;;;;;;;;;;5085807;28;20373;-82
2023/09/21 04:33:35;;;;;;;1.80;1.30;;;;;;;;;;5088810;28;20417;-83
2023/09/21 04:36:01;;;;;;;1.92;1.40;;;;;;;;;;5081120;28;20387;-83
2023/09/21 04:38:27;;;;;;;1.70;1.60;;;;;;;;;;5081209;28;20387;-84
2023/09/21 04:40:53;;;;;;;1.40;1.30;;;;;;;;;;5073281;28;20405;-82
2023/09/21 04:51:11;;;;;;;1.92;1.83;;;;;;;;;;1237161;22;20480;-84
2023/09/21 04:53:59;;;;;;;2.25;2.05;;;;;;;;;;5098203;22;20427;-83
2023/09/21 04:56:35;;;;;;;1.80;1.70;;;;;;;;;;5074531;28;20407;-83
2023/09/21 04:59:07;;;;;;;1.98;1.77;;;;;;;;;;5084870;28;20380;-83
2023/09/21 05:01:33;;;;;;;2.17;1.88;;;;;;;;;;5080320;28;20403;-81
2023/09/21 05:04:02;;;;;;;2.20;1.55;;;;;;;;;;5091694;28;20386;-83
2023/09/21 05:06:40;;;;;;;1.70;1.60;;;;;;;;;;5083070;28;20879;-83
2023/09/21 05:09:10;;;;;;;1.88;1.63;;;;;;;;;;5100729;28;20385;-82
2023/09/21 05:11:41;;;;;;;2.33;1.60;;;;;;;;;;5101749;28;20378;-83
2023/09/21 05:14:10;;;;;;;1.60;1.50;;;;;;;;;;5100565;28;20730;-83
2023/09/21 05:16:37;;;;;;;1.75;1.40;;;;;;;;;;5098661;28;20385;-83
2023/09/21 05:19:17;;;;;;;;;;;;;;;;;;;;;
2023/09/21 05:21:50;;;;;;;1.55;1.35;;;;;;;;;;5085348;28;20393;-83
2023/09/21 05:24:22;;;;;;;2.20;1.70;;;;;;;;;;5099014;28;20469;-83
2023/09/21 05:26:48;;;;;;;1.80;1.70;;;;;;;;;;5097932;28;21020;-84
2023/09/21 05:29:16;;;;;;;2.23;1.80;;;;;;;;;;5099472;28;20748;-82
2023/09/21 05:31:44;;;;;;;1.60;1.50;;;;;;;;;;5096891;28;20394;-83
2023/09/21 05:34:17;;;;;;;1.48;1.38;;;;;;;;;;5078653;28;20427;-81
2023/09/21 05:36:55;;;;;;;1.63;1.52;;;;;;;;;;5097287;28;20386;-83
2023/09/21 05:39:22;;;;;;;2.47;1.63;;;;;;;;;;5097558;28;20414;-82
2023/09/21 05:42:05;;;;;;;1.70;1.40;;;;;;;;;;5097032;28;20837;-83
2023/09/21 05:44:31;;;;;;;1.40;1.30;;;;;;;;;;5100549;28;20381;-83
2023/09/21 05:46:57;;;;;;;2.15;1.52;;;;;;;;;;5099339;28;20891;-83
2023/09/21 05:49:27;;;;;;;2.65;1.80;;;;;;;;;;5099194;28;20389;-82
2023/09/21 05:52:12;;;;;;;2.50;2.20;;;;;;;;;;5097777;28;20378;-82
2023/09/21 05:54:46;;;;;;;1.67;1.52;;;;;;;;;;5097505;28;20762;-84
2023/09/21 05:57:12;;;;;;;2.10;1.90;;;;;;;;;;5096815;28;20370;-81
2023/09/21 05:59:41;;;;;;;2.45;1.55;;;;;;;;;;5095891;28;20382;-82
2023/09/21 06:02:13;;;;;;;2.10;1.58;;;;;;;;;;5095503;28;20723;-82
2023/09/21 06:04:39;;;;;;;2.47;1.60;;;;;;;;;;5078869;28;20393;-83
2023/09/21 06:07:05;;;;;;;2.88;1.60;;;;;;;;;;5095744;28;20406;-83
2023/09/21 06:09:33;;;;;;;2.63;1.70;;;;;;;;;;5095863;28;20385;-82
2023/09/21 06:12:02;;;;;;;2.03;1.50;;;;;;;;;;5094398;28;20380;-82
2023/09/21 06:14:28;;;;;;;2.60;1.60;;;;;;;;;;5095006;28;20462;-82
2023/09/21 06:16:54;;;;;;;2.35;1.60;;;;;;;;;;5095335;28;20386;-82
2023/09/21 06:19:20;;;;;;;3.95;1.70;;;;;;;;;;5095000;28;20390;-81
2023/09/21 06:21:48;;;;;;;2.60;1.60;;;;;;;;;;5094786;28;20381;-81
2023/09/21 06:24:15;;;;;;;1.90;1.60;;;;;;;;;;5095272;28;20909;-81
2023/09/21 06:26:41;;;;;;;1.70;1.60;;;;;;;;;;5096529;28;20426;-80
2023/09/21 06:29:08;;;;;;;1.80;1.70;;;;;;;;;;5095383;28;20473;-81
2023/09/21 06:31:36;;;;;;;4.15;1.70;;;;;;;;;;5094962;28;20743;-81
2023/09/21 06:34:07;;;;;;;2.05;1.85;;;;;;;;;;5095269;28;20386;-82
2023/09/21 06:36:34;;;;;;;1.70;1.60;;;;;;;;;;5093610;28;20385;-82
2023/09/21 06:39:00;;;;;;;1.77;1.67;;;;;;;;;;5095501;28;20476;-81
2023/09/21 06:41:26;;;;;;;1.95;1.70;;;;;;;;;;5095162;28;20382;-80
2023/09/21 06:43:53;;;;;;;2.00;1.80;;;;;;;;;;5094742;28;20466;-80
2023/09/21 06:46:19;;;;;;;1.67;1.50;;;;;;;;;;5095085;28;20820;-82
2023/09/21 06:48:45;;;;;;;1.73;1.60;;;;;;;;;;5095250;28;20386;-81
2023/09/21 06:51:12;;;;;;;1.40;1.30;;;;;;;;;;5095193;28;20843;-80
2023/09/21 06:53:38;;;;;;;1.85;1.70;;;;;;;;;;5094548;28;20744;-80
2023/09/21 06:56:05;;;;;;;2.00;1.77;;;;;;;;;;5096391;28;20374;-80
2023/09/21 06:58:31;;;;;;;2.33;1.70;;;;;;;;;;5077153;28;20378;-80
2023/09/21 07:01:04;;;;;;;2.03;1.83;;;;;;;;;;5095002;28;20457;-82
2023/09/21 07:03:30;;;;;;;2.53;1.65;;;;;;;;;;5095138;28;20378;-82
2023/09/21 07:05:56;;;;;;;2.03;1.80;;;;;;;;;;5095381;28;20378;-81
2023/09/21 07:08:22;;;;;;;1.90;1.80;;;;;;;;;;5094888;28;20421;-81
2023/09/21 07:10:49;;;;;;;2.03;1.83;;;;;;;;;;5094582;28;21011;-81
2023/09/21 07:13:15;;;;;;;3.25;2.40;;;;;;;;;;5094916;28;20378;-82
2023/09/21 07:15:41;;;;;;;1.88;1.77;;;;;;;;;;5094823;28;20378;-82
2023/09/21 07:18:07;;;;;;;2.55;1.83;;;;;;;;;;5094934;28;20386;-82
2023/09/21 07:20:34;;;;;;;1.70;1.60;;;;;;;;;;5094534;28;20878;-82
2023/09/21 07:23:00;;;;;;;2.10;1.80;;;;;;;;;;5094228;28;20382;-82
2023/09/21 07:25:27;;;;;;;2.15;1.60;;;;;;;;;;5094904;28;20390;-82
2023/09/21 07:27:54;;;;;;;1.80;1.60;;;;;;;;;;5094533;28;20405;-82
2023/09/21 07:30:21;;;;;;;1.83;1.70;;;;;;;;;;5096504;28;20829;-82
2023/09/21 07:32:47;;;;;;;2.03;1.85;;;;;;;;;;5094189;28;20414;-82
2023/09/21 07:35:14;;;;;;;2.30;2.05;;;;;;;;;;5092273;28;20382;-81
2023/09/21 07:37:45;;;;;;;2.83;2.50;;;;;;;;;;5095113;28;20458;-82
2023/09/21 07:40:12;;;;;;;6.50;4.60;;;;;;;;;;5093038;28;20378;-81
2023/09/21 07:42:42;;;;;;;6.43;3.87;;;;;;;;;;5094488;28;20696;-81
2023/09/21 07:45:08;;;;;;;4.43;3.60;;;;;;;;;;5094012;28;20816;-82
2023/09/21 07:47:34;;;;;;;4.17;3.77;;;;;;;;;;5094095;28;20942;-82
2023/09/21 07:50:00;;;;;;;4.22;3.83;;;;;;;;;;5094369;28;20409;-82
2023/09/21 07:52:28;;;;;;;9.30;5.65;;;;;;;;;;5094513;28;20728;-82
2023/09/21 07:54:54;;;;;;;7.38;5.80;;;;;;;;;;5094166;28;20472;-82
2023/09/21 07:57:20;;;;;;;6.70;6.00;;;;;;;;;;5086841;28;20420;-82
2023/09/21 07:59:46;;;;;;;8.25;7.03;;;;;;;;;;5094466;28;20382;-83
2023/09/21 08:02:12;;;;;;;11.65;8.02;;;;;;;;;;5102678;28;20912;-84
2023/09/21 08:04:38;;;;;;;10.20;8.57;;;;;;;;;;5104052;28;20390;-84
2023/09/21 08:07:05;;;;;;;12.90;9.75;;;;;;;;;;5086607;28;20405;-84
2023/09/21 08:09:32;;;;;;;15.50;10.43;;;;;;;;;;5104518;28;20415;-84
2023/09/21 08:11:58;;;;;;;15.48;10.40;;;;;;;;;;5104482;28;20381;-84
2023/09/21 08:14:25;;;;;;;15.65;10.57;;;;;;;;;;5087413;28;20386;-84
2023/09/21 08:16:53;;;;;;;16.13;10.52;;;;;;;;;;5104661;28;20861;-84
2023/09/21 08:19:19;;;;;;;16.27;10.70;;;;;;;;;;5087671;28;20393;-84
2023/09/21 08:21:45;;;;;;;16.05;10.88;;;;;;;;;;5105877;28;20378;-84
2023/09/21 08:24:12;;;;;;;15.02;10.20;;;;;;;;;;5086366;28;20941;-84
2023/09/21 08:26:40;;;;;;;16.73;10.80;;;;;;;;;;5105047;28;20930;-84
2023/09/21 08:29:06;;;;;;;17.73;10.63;;;;;;;;;;5104440;28;20397;-84
2023/09/21 08:31:32;;;;;;;15.85;10.60;;;;;;;;;;5105812;28;20432;-84
2023/09/21 08:33:59;;;;;;;15.27;9.82;;;;;;;;;;5105177;28;20392;-84
2023/09/21 08:36:25;;;;;;;12.70;8.40;;;;;;;;;;5108740;28;20795;-84
2023/09/21 08:38:53;;;;;;;12.88;9.65;;;;;;;;;;5115455;28;20374;-84
2023/09/21 08:41:19;;;;;;;15.82;10.27;;;;;;;;;;5106307;28;20713;-83
2023/09/21 08:43:45;;;;;;;16.60;9.13;;;;;;;;;;5103699;28;20438;-84
2023/09/21 08:46:14;;;;;;;7.50;6.20;;;;;;;;;;5104915;28;20719;-84
2023/09/21 08:48:40;;;;;;;8.38;5.25;;;;;;;;;;5105688;28;20390;-83
2023/09/21 08:51:15;;;;;;;7.75;5.00;;;;;;;;;;5103452;28;20887;-83
2023/09/21 08:53:42;;;;;;;7.30;4.43;;;;;;;;;;5102403;28;20465;-83
2023/09/21 08:56:08;;;;;;;6.15;4.28;;;;;;;;;;5110876;28;20486;-83
2023/09/21 08:58:40;;;;;;;9.13;4.60;;;;;;;;;;5109085;28;20443;-84
2023/09/21 09:01:06;;;;;;;7.15;4.70;;;;;;;;;;5108628;28;20385;-84
2023/09/21 09:03:34;;;;;;;7.93;4.75;;;;;;;;;;5108071;28;20382;-84
2023/09/21 09:06:00;;;;;;;5.65;4.00;;;;;;;;;;5108869;28;20416;-84
2023/09/21 09:08:26;;;;;;;6.07;4.40;;;;;;;;;;5108218;28;20471;-84
2023/09/21 09:10:53;;;;;;;5.93;4.70;;;;;;;;;;5108323;28;20370;-84
2023/09/21 09:13:30;;;;;;;6.70;4.68;;;;;;;;;;5108783;28;20386;-85
2023/09/21 09:15:58;;;;;;;6.60;3.70;;;;;;;;;;5108165;28;20462;-85
2023/09/21 09:18:24;;;;;;;5.53;3.43;;;;;;;;;;5108804;28;20392;-85
2023/09/21 09:20:50;;;;;;;14.40;4.70;;;;;;;;;;5107980;28;20430;-85
2023/09/21 09:23:17;;;;;;;5.72;3.45;;;;;;;;;;5108152;28;20381;-84
2023/09/21 09:25:44;;;;;;;6.93;4.00;;;;;;;;;;5111529;28;20414;-84
2023/09/21 09:28:10;;;;;;;6.50;5.03;;;;;;;;;;5108731;28;20414;-84
2023/09/21 09:30:36;;;;;;;7.93;5.22;;;;;;;;;;5120986;28;20430;-84
2023/09/21 09:33:03;;;;;;;7.43;4.80;;;;;;;;;;5107847;28;20386;-85
2023/09/21 09:35:32;;;;;;;5.30;4.50;;;;;;;;;;5107709;28;20390;-86
2023/09/21 09:37:58;;;;;;;4.47;3.47;;;;;;;;;;5107963;28;20378;-85
2023/09/21 09:40:24;;;;;;;5.22;3.47;;;;;;;;;;5107806;28;20435;-85
2023/09/21 09:42:51;;;;;;;4.53;3.38;;;;;;;;;;5108608;28;20386;-85
2023/09/21 09:45:30;;;;;;;4.70;3.40;;;;;;;;;;5107158;28;20464;-85
2023/09/21 09:47:57;;;;;;;6.80;3.70;;;;;;;;;;5106677;28;20402;-85
2023/09/21 09:50:24;;;;;;;4.30;3.30;;;;;;;;;;5102169;28;20480;-85
2023/09/21 09:52:52;;;;;;;8.07;4.22;;;;;;;;;;5107337;28;20378;-83
2023/09/21 09:55:22;;;;;;;4.75;3.95;;;;;;;;;;5109600;28;20378;-84
2023/09/21 09:57:50;;;;;;;5.28;3.35;;;;;;;;;;5108524;28;20377;-84
2023/09/21 10:00:21;;;;;;;3.03;2.80;;;;;;;;;;5109392;28;20389;-84
2023/09/21 10:02:47;;;;;;;4.00;2.60;;;;;;;;;;5106693;28;20457;-82
2023/09/21 10:05:14;;;;;;;4.53;2.90;;;;;;;;;;5105284;28;20386;-83
2023/09/21 10:07:40;;;;;;;7.00;4.50;;;;;;;;;;5107314;28;20414;-83
2023/09/21 10:10:15;;;;;;;4.55;3.35;;;;;;;;;;5097267;28;20853;-83
2023/09/21 10:12:41;;;;;;;3.88;3.20;;;;;;;;;;5103190;28;20408;-83
2023/09/21 10:15:09;;;;;;;7.20;3.60;;;;;;;;;;5108557;28;20410;-85
2023/09/21 10:17:36;;;;;;;8.88;6.05;;;;;;;;;;5105236;28;20457;-85
2023/09/21 10:20:14;;;;;;;6.05;4.60;;;;;;;;;;5105370;28;20778;-85
2023/09/21 10:22:43;;;;;;;4.97;4.10;;;;;;;;;;5106004;28;20402;-85
2023/09/21 10:25:10;;;;;;;4.10;3.70;;;;;;;;;;5105434;28;20382;-86
2023/09/21 10:27:38;;;;;;;3.53;3.00;;;;;;;;;;5106339;28;20479;-85
2023/09/21 10:30:06;;;;;;;6.93;5.00;;;;;;;;;;5104456;28;20465;-85
2023/09/21 10:32:49;;;;;;;7.20;4.88;;;;;;;;;;5105626;28;20381;-83
2023/09/21 10:35:49;;;;;;;9.10;6.65;;;;;;;;;;5106490;28;20386;-82
2023/09/21 10:38:16;;;;;;;4.63;3.87;;;;;;;;;;5105670;28;20436;-83
2023/09/21 10:40:43;;;;;;;9.30;5.87;;;;;;;;;;5102272;28;20435;-82
2023/09/21 10:43:28;;;;;;;6.20;3.15;;;;;;;;;;5100412;28;20473;-82
2023/09/21 10:45:55;;;;;;;3.22;2.92;;;;;;;;;;5100185;28;20792;-82
2023/09/21 10:48:24;;;;;;;5.78;4.40;;;;;;;;;;5085485;28;20461;-82
2023/09/21 10:50:50;;;;;;;3.80;2.83;;;;;;;;;;5102056;28;20378;-83
2023/09/21 10:53:23;;;;;;;2.80;2.50;;;;;;;;;;5104084;28;20398;-81
2023/09/21 10:55:49;;;;;;;4.10;3.42;;;;;;;;;;5103344;28;20402;-81
2023/09/21 10:58:17;;;;;;;4.13;3.10;;;;;;;;;;5105624;28;20444;-81
2023/09/21 11:00:43;;;;;;;2.75;2.38;;;;;;;;;;5094389;28;20418;-82
2023/09/21 11:03:13;;;;;;;2.53;1.95;;;;;;;;;;5098928;28;20379;-82
2023/09/21 11:05:39;;;;;;;3.17;2.38;;;;;;;;;;5101403;28;20382;-83
2023/09/21 11:08:06;;;;;;;4.30;2.58;;;;;;;;;;5098697;28;20422;-83
2023/09/21 11:10:33;;;;;;;2.80;2.30;;;;;;;;;;5102761;28;20374;-82
2023/09/21 11:12:59;;;;;;;2.63;1.90;;;;;;;;;;5101074;28;20390;-82
2023/09/21 11:15:25;;;;;;;3.03;2.05;;;;;;;;;;5099221;28;20436;-82
2023/09/21 11:17:52;;;;;;;4.18;2.78;;;;;;;;;;5096070;28;20408;-81
2023/09/21 11:20:19;;;;;;;3.83;2.10;;;;;;;;;;5094983;28;20882;-82
2023/09/21 11:22:46;;;;;;;3.83;2.92;;;;;;;;;;5090040;28;20844;-81
2023/09/21 11:25:14;;;;;;;8.25;6.20;;;;;;;;;;5093747;28;20389;-82
2023/09/21 11:27:41;;;;;;;2.67;2.10;;;;;;;;;;5094217;28;20430;-83
2023/09/21 11:30:10;;;;;;;1.48;1.38;;;;;;;;;;5103327;28;20389;-83
2023/09/21 11:32:57;;;;;;;2.53;1.40;;;;;;;;;;5101302;28;20370;-83
2023/09/21 11:35:23;;;;;;;2.10;1.50;;;;;;;;;;5103248;28;20385;-83
2023/09/21 11:37:51;;;;;;;4.10;1.23;;;;;;;;;;5103856;28;20382;-83
2023/09/21 11:40:21;;;;;;;3.15;1.17;;;;;;;;;;5103822;28;20382;-81
2023/09/21 11:42:48;;;;;;;2.00;1.20;;;;;;;;;;5107003;28;20391;-81
2023/09/21 11:45:15;;;;;;;5.97;1.50;;;;;;;;;;5112103;28;20390;-83
2023/09/21 11:47:41;;;;;;;3.50;1.40;;;;;;;;;;5102692;28;20465;-82
2023/09/21 11:50:09;;;;;;;2.03;1.30;;;;;;;;;;5103241;28;20807;-83
2023/09/21 11:52:35;;;;;;;1.50;1.20;;;;;;;;;;5104212;28;20406;-82
2023/09/21 11:55:01;;;;;;;1.30;1.20;;;;;;;;;;5103030;28;20847;-80
2023/09/21 11:57:27;;;;;;;1.92;1.20;;;;;;;;;;5103099;28;20440;-83
2023/09/21 11:59:56;;;;;;;1.40;1.02;;;;;;;;;;5101814;28;20446;-81
2023/09/21 12:02:22;;;;;;;2.30;1.30;;;;;;;;;;5103556;28;20724;-81
2023/09/21 12:04:49;;;;;;;2.47;1.30;;;;;;;;;;5102148;28;20840;-81
2023/09/21 12:07:15;;;;;;;1.60;1.38;;;;;;;;;;5117425;28;20496;-82
2023/09/21 12:09:41;;;;;;;2.72;1.63;;;;;;;;;;5104288;28;20414;-82
2023/09/21 12:12:08;;;;;;;1.40;1.20;;;;;;;;;;5102812;28;20390;-82
2023/09/21 12:14:35;;;;;;;1.33;1.23;;;;;;;;;;5092939;28;20391;-81
2023/09/21 12:17:05;;;;;;;1.30;1.20;;;;;;;;;;5080453;28;20387;-83
2023/09/21 12:19:31;;;;;;;1.70;1.20;;;;;;;;;;5108739;28;20693;-83
2023/09/21 12:21:57;;;;;;;1.83;1.20;;;;;;;;;;5106800;28;20968;-83
2023/09/21 12:24:23;;;;;;;3.03;1.45;;;;;;;;;;5120093;28;20866;-83
2023/09/21 12:26:49;;;;;;;1.50;1.40;;;;;;;;;;5108828;28;20455;-83
2023/09/21 12:29:17;;;;;;;1.45;1.20;;;;;;;;;;5108153;28;20386;-83
2023/09/21 12:31:44;;;;;;;2.22;1.30;;;;;;;;;;5108436;28;20370;-84
2023/09/21 12:34:12;;;;;;;1.90;1.50;;;;;;;;;;5107213;28;20385;-84
2023/09/21 12:36:38;;;;;;;3.35;1.38;;;;;;;;;;5108448;28;20389;-84
2023/09/21 12:39:09;;;;;;;2.38;1.60;;;;;;;;;;5122694;28;20380;-81
2023/09/21 12:41:38;;;;;;;1.67;1.53;;;;;;;;;;5107648;28;20382;-83
2023/09/21 12:44:05;;;;;;;1.50;1.20;;;;;;;;;;5106002;28;20432;-82
2023/09/21 12:46:32;;;;;;;3.25;1.52;;;;;;;;;;5074819;28;20378;-81
2023/09/21 12:48:58;;;;;;;3.05;1.40;;;;;;;;;;5108053;28;20390;-83
2023/09/21 12:51:24;;;;;;;1.40;1.20;;;;;;;;;;5097018;28;20382;-83
2023/09/21 12:53:50;;;;;;;1.93;1.60;;;;;;;;;;5104844;28;20390;-83
2023/09/21 12:56:16;;;;;;;2.20;1.70;;;;;;;;;;5104880;28;20382;-83
2023/09/21 12:58:42;;;;;;;3.50;1.40;;;;;;;;;;5105323;28;20385;-82
2023/09/21 13:01:08;;;;;;;2.10;1.33;;;;;;;;;;5106868;28;20398;-83
2023/09/21 13:03:35;;;;;;;2.55;1.30;;;;;;;;;;5105212;28;20459;-82
2023/09/21 13:06:05;;;;;;;1.70;1.20;;;;;;;;;;5105492;28;21813;-81
2023/09/21 13:08:32;;;;;;;1.90;1.30;;;;;;;;;;5101113;28;20419;-82
2023/09/21 13:10:58;;;;;;;2.03;1.05;;;;;;;;;;5104287;28;20381;-82
2023/09/21 13:13:25;;;;;;;1.65;1.10;;;;;;;;;;5094379;28;20382;-82
2023/09/21 13:15:51;;;;;;;1.58;1.10;;;;;;;;;;5099031;28;20394;-83
2023/09/21 13:18:19;;;;;;;1.45;1.10;;;;;;;;;;5098148;28;20386;-82
2023/09/21 13:20:45;;;;;;;1.27;1.08;;;;;;;;;;5098361;28;20382;-82
2023/09/21 13:23:11;;;;;;;3.00;1.20;;;;;;;;;;5106528;28;20468;-82
2023/09/21 13:25:37;;;;;;;2.90;1.05;;;;;;;;;;5093988;28;20390;-83
2023/09/21 13:28:03;;;;;;;1.15;0.90;;;;;;;;;;5079132;28;20755;-83
2023/09/21 13:30:29;;;;;;;1.95;1.20;;;;;;;;;;5106736;28;21194;-83
2023/09/21 13:32:57;;;;;;;2.60;1.13;;;;;;;;;;5098199;28;20408;-83
2023/09/21 13:35:23;;;;;;;4.00;1.20;;;;;;;;;;5103711;28;20387;-83
2023/09/21 13:37:49;;;;;;;1.95;1.33;;;;;;;;;;5103363;28;20377;-81
2023/09/21 13:40:15;;;;;;;1.92;1.15;;;;;;;;;;5103872;28;20913;-81
2023/09/21 13:42:41;;;;;;;1.42;0.90;;;;;;;;;;5105743;28;20421;-82
2023/09/21 13:45:09;;;;;;;1.30;0.90;;;;;;;;;;5102070;28;20389;-80
2023/09/21 13:47:35;;;;;;;3.58;1.30;;;;;;;;;;5101933;28;20459;-81
2023/09/21 13:50:01;;;;;;;13.43;2.10;;;;;;;;;;5108367;28;20374;-82
2023/09/21 13:52:27;;;;;;;6.25;1.85;;;;;;;;;;5106850;28;20404;-83
2023/09/21 13:54:55;;;;;;;1.58;1.00;;;;;;;;;;5103108;28;20848;-82
2023/09/21 13:57:21;;;;;;;2.25;1.10;;;;;;;;;;5102949;28;20401;-82
2023/09/21 13:59:47;;;;;;;1.60;1.10;;;;;;;;;;5113661;28;20381;-81
2023/09/21 14:02:14;;;;;;;2.50;1.20;;;;;;;;;;5104304;28;20403;-83
2023/09/21 14:04:40;;;;;;;1.67;1.05;;;;;;;;;;5098558;28;20386;-82
2023/09/21 14:07:06;;;;;;;2.65;1.20;;;;;;;;;;5104544;28;20478;-83
2023/09/21 14:09:32;;;;;;;1.10;0.90;;;;;;;;;;5106292;28;20390;-83
2023/09/21 14:11:59;;;;;;;1.20;1.00;;;;;;;;;;5103940;28;20453;-83
2023/09/21 14:14:26;;;;;;;1.52;1.00;;;;;;;;;;5113061;28;20377;-81
2023/09/21 14:16:52;;;;;;;2.63;1.20;;;;;;;;;;5108705;28;20374;-82
2023/09/21 14:19:18;;;;;;;2.28;1.20;;;;;;;;;;5117623;28;20441;-82
2023/09/21 14:21:44;;;;;;;3.53;0.88;;;;;;;;;;5105960;28;20417;-82
2023/09/21 14:24:10;;;;;;;1.10;0.90;;;;;;;;;;5105012;28;20382;-82
2023/09/21 14:26:37;;;;;;;1.03;0.93;;;;;;;;;;5104452;28;20457;-82
2023/09/21 14:29:03;;;;;;;1.45;1.02;;;;;;;;;;5105857;28;20386;-82
2023/09/21 14:31:29;;;;;;;2.10;0.90;;;;;;;;;;5105484;28;20748;-82
2023/09/21 14:33:55;;;;;;;1.73;1.13;;;;;;;;;;5103789;28;20389;-81
2023/09/21 14:36:21;;;;;;;1.75;1.02;;;;;;;;;;5104327;28;20374;-81
2023/09/21 14:38:47;;;;;;;0.98;0.88;;;;;;;;;;5097956;28;20416;-82
2023/09/21 14:41:14;;;;;;;1.15;0.98;;;;;;;;;;5104821;28;20406;-81
2023/09/21 14:43:40;;;;;;;1.23;0.90;;;;;;;;;;5103031;28;20484;-82
2023/09/21 14:46:06;;;;;;;2.38;1.00;;;;;;;;;;5104421;28;20374;-82
2023/09/21 14:48:32;;;;;;;1.90;1.00;;;;;;;;;;5082936;28;20409;-79
2023/09/21 14:50:58;;;;;;;1.38;1.17;;;;;;;;;;5100074;28;20448;-78
2023/09/21 14:53:25;;;;;;;1.60;1.10;;;;;;;;;;5098317;28;20804;-79